Aviation Digital Data Service (ADDS)

Output produced by METARs form (1113 UTC 24 April 2017)
found at http://www.aviationweather.gov/adds/metars/
 
TAF EGYP 241006Z 2412/2506 01015KT 9999 SCT025 
     BECMG 2415/2418 02020G30KT SCT020 
     TEMPO 2418/2506 7000 -RA SCT008 BKN020